sensor_id;sensor_type;location;lat;lon;timestamp;temperature;humidity
19862;DHT22;10093;48.148;8.542;2022-07-10T00:00:28;14.60;99.90
19862;DHT22;10093;48.148;8.542;2022-07-10T00:02:54;14.50;99.90
19862;DHT22;10093;48.148;8.542;2022-07-10T00:05:20;14.40;99.90
19862;DHT22;10093;48.148;8.542;2022-07-10T00:07:47;14.40;99.90
19862;DHT22;10093;48.148;8.542;2022-07-10T00:10:12;14.40;99.90
19862;DHT22;10093;48.148;8.542;2022-07-10T00:12:38;14.40;99.90
19862;DHT22;10093;48.148;8.542;2022-07-10T00:15:04;14.30;99.90
19862;DHT22;10093;48.148;8.542;2022-07-10T00:17:31;14.10;99.90
19862;DHT22;10093;48.148;8.542;2022-07-10T00:19:57;14.00;99.90
19862;DHT22;10093;48.148;8.542;2022-07-10T00:22:23;13.90;99.90
19862;DHT22;10093;48.148;8.542;2022-07-10T00:24:48;13.80;99.90
19862;DHT22;10093;48.148;8.542;2022-07-10T00:27:16;13.70;99.90
19862;DHT22;10093;48.148;8.542;2022-07-10T00:29:42;13.60;99.90
19862;DHT22;10093;48.148;8.542;2022-07-10T00:32:08;13.50;99.90
19862;DHT22;10093;48.148;8.542;2022-07-10T00:34:33;13.50;99.90
19862;DHT22;10093;48.148;8.542;2022-07-10T00:36:59;13.40;99.90
19862;DHT22;10093;48.148;8.542;2022-07-10T00:39:25;13.40;99.90
19862;DHT22;10093;48.148;8.542;2022-07-10T00:41:51;13.30;99.90
19862;DHT22;10093;48.148;8.542;2022-07-10T00:44:17;13.20;99.90
19862;DHT22;10093;48.148;8.542;2022-07-10T00:46:43;13.10;99.90
19862;DHT22;10093;48.148;8.542;2022-07-10T00:49:08;13.20;99.90
19862;DHT22;10093;48.148;8.542;2022-07-10T00:51:34;13.10;99.90
19862;DHT22;10093;48.148;8.542;2022-07-10T00:54:00;13.00;99.90
19862;DHT22;10093;48.148;8.542;2022-07-10T00:56:27;12.90;99.90
19862;DHT22;10093;48.148;8.542;2022-07-10T00:58:53;12.80;99.90
19862;DHT22;10093;48.148;8.542;2022-07-10T01:01:20;12.70;99.90
19862;DHT22;10093;48.148;8.542;2022-07-10T01:03:48;12.70;99.90
19862;DHT22;10093;48.148;8.542;2022-07-10T01:06:14;12.70;99.90
19862;DHT22;10093;48.148;8.542;2022-07-10T01:08:40;12.60;99.90
19862;DHT22;10093;48.148;8.542;2022-07-10T01:11:06;12.60;99.90
19862;DHT22;10093;48.148;8.542;2022-07-10T01:13:32;12.50;99.90
19862;DHT22;10093;48.148;8.542;2022-07-10T01:15:58;12.50;99.90
19862;DHT22;10093;48.148;8.542;2022-07-10T01:18:25;12.50;99.90
19862;DHT22;10093;48.148;8.542;2022-07-10T01:20:52;12.40;99.90
19862;DHT22;10093;48.148;8.542;2022-07-10T01:23:18;12.30;99.90
19862;DHT22;10093;48.148;8.542;2022-07-10T01:25:44;12.30;99.90
19862;DHT22;10093;48.148;8.542;2022-07-10T01:28:09;12.20;99.90
19862;DHT22;10093;48.148;8.542;2022-07-10T01:30:35;12.20;99.90
19862;DHT22;10093;48.148;8.542;2022-07-10T01:33:01;12.10;99.90
19862;DHT22;10093;48.148;8.542;2022-07-10T01:35:26;12.10;99.90
19862;DHT22;10093;48.148;8.542;2022-07-10T01:37:52;12.00;99.90
19862;DHT22;10093;48.148;8.542;2022-07-10T01:40:18;11.90;99.90
19862;DHT22;10093;48.148;8.542;2022-07-10T01:42:43;11.80;99.90
19862;DHT22;10093;48.148;8.542;2022-07-10T01:45:11;11.70;99.90
19862;DHT22;10093;48.148;8.542;2022-07-10T01:47:36;11.80;99.90
19862;DHT22;10093;48.148;8.542;2022-07-10T01:50:03;12.20;99.90
19862;DHT22;10093;48.148;8.542;2022-07-10T01:52:29;12.30;99.90
19862;DHT22;10093;48.148;8.542;2022-07-10T01:54:54;12.10;99.90
19862;DHT22;10093;48.148;8.542;2022-07-10T01:57:20;12.00;99.90
19862;DHT22;10093;48.148;8.542;2022-07-10T01:59:46;11.90;99.90
19862;DHT22;10093;48.148;8.542;2022-07-10T02:02:11;11.90;99.90
19862;DHT22;10093;48.148;8.542;2022-07-10T02:04:37;11.80;99.90
19862;DHT22;10093;48.148;8.542;2022-07-10T02:07:07;11.90;99.90
19862;DHT22;10093;48.148;8.542;2022-07-10T02:09:33;11.90;99.90
19862;DHT22;10093;48.148;8.542;2022-07-10T02:11:58;11.70;99.90
19862;DHT22;10093;48.148;8.542;2022-07-10T02:14:24;11.60;99.90
19862;DHT22;10093;48.148;8.542;2022-07-10T02:16:49;11.60;99.90
19862;DHT22;10093;48.148;8.542;2022-07-10T02:19:15;11.40;99.90
19862;DHT22;10093;48.148;8.542;2022-07-10T02:21:41;11.30;99.90
19862;DHT22;10093;48.148;8.542;2022-07-10T02:24:06;11.30;99.90
19862;DHT22;10093;48.148;8.542;2022-07-10T02:26:32;11.40;99.90
19862;DHT22;10093;48.148;8.542;2022-07-10T02:28:58;11.40;99.90
19862;DHT22;10093;48.148;8.542;2022-07-10T02:31:23;11.50;99.90
19862;DHT22;10093;48.148;8.542;2022-07-10T02:33:49;11.70;99.90
19862;DHT22;10093;48.148;8.542;2022-07-10T02:36:14;11.80;99.90
19862;DHT22;10093;48.148;8.542;2022-07-10T02:38:40;11.80;99.90
19862;DHT22;10093;48.148;8.542;2022-07-10T02:41:06;11.80;99.90
19862;DHT22;10093;48.148;8.542;2022-07-10T02:43:31;11.60;99.90
19862;DHT22;10093;48.148;8.542;2022-07-10T02:45:57;11.50;99.90
19862;DHT22;10093;48.148;8.542;2022-07-10T02:48:23;11.30;99.90
19862;DHT22;10093;48.148;8.542;2022-07-10T02:50:48;11.40;99.90
19862;DHT22;10093;48.148;8.542;2022-07-10T02:53:14;11.40;99.90
19862;DHT22;10093;48.148;8.542;2022-07-10T02:55:39;11.20;99.90
19862;DHT22;10093;48.148;8.542;2022-07-10T02:58:05;11.10;99.90
19862;DHT22;10093;48.148;8.542;2022-07-10T03:00:30;11.10;99.90
19862;DHT22;10093;48.148;8.542;2022-07-10T03:02:56;10.90;99.90
19862;DHT22;10093;48.148;8.542;2022-07-10T03:05:22;10.70;99.90
19862;DHT22;10093;48.148;8.542;2022-07-10T03:07:48;10.60;99.90
19862;DHT22;10093;48.148;8.542;2022-07-10T03:10:14;10.60;99.90
19862;DHT22;10093;48.148;8.542;2022-07-10T03:12:39;10.40;99.90
19862;DHT22;10093;48.148;8.542;2022-07-10T03:15:06;10.60;99.90
19862;DHT22;10093;48.148;8.542;2022-07-10T03:17:32;10.80;99.90
19862;DHT22;10093;48.148;8.542;2022-07-10T03:19:57;10.80;99.90
19862;DHT22;10093;48.148;8.542;2022-07-10T03:22:23;10.60;99.90
19862;DHT22;10093;48.148;8.542;2022-07-10T03:24:49;10.80;99.90
19862;DHT22;10093;48.148;8.542;2022-07-10T03:27:15;10.80;99.90
19862;DHT22;10093;48.148;8.542;2022-07-10T03:29:40;10.80;99.90
19862;DHT22;10093;48.148;8.542;2022-07-10T03:32:07;10.90;99.90
19862;DHT22;10093;48.148;8.542;2022-07-10T03:34:32;10.80;99.90
19862;DHT22;10093;48.148;8.542;2022-07-10T03:36:59;10.80;99.90
19862;DHT22;10093;48.148;8.542;2022-07-10T03:39:28;10.60;99.90
19862;DHT22;10093;48.148;8.542;2022-07-10T03:41:53;10.50;99.90
19862;DHT22;10093;48.148;8.542;2022-07-10T03:44:19;10.50;99.90
19862;DHT22;10093;48.148;8.542;2022-07-10T03:46:45;10.50;99.90
19862;DHT22;10093;48.148;8.542;2022-07-10T03:49:11;10.40;99.90
19862;DHT22;10093;48.148;8.542;2022-07-10T03:51:37;10.30;99.90
19862;DHT22;10093;48.148;8.542;2022-07-10T03:54:02;10.20;99.90
19862;DHT22;10093;48.148;8.542;2022-07-10T03:56:28;10.10;99.90
19862;DHT22;10093;48.148;8.542;2022-07-10T03:59:12;10.20;99.90
19862;DHT22;10093;48.148;8.542;2022-07-10T04:01:38;10.60;99.90
19862;DHT22;10093;48.148;8.542;2022-07-10T04:04:04;10.70;99.90
19862;DHT22;10093;48.148;8.542;2022-07-10T04:06:29;10.70;99.90
19862;DHT22;10093;48.148;8.542;2022-07-10T04:08:55;10.70;99.90
19862;DHT22;10093;48.148;8.542;2022-07-10T04:11:21;10.60;99.90
19862;DHT22;10093;48.148;8.542;2022-07-10T04:13:47;10.50;99.90
19862;DHT22;10093;48.148;8.542;2022-07-10T04:16:12;10.50;99.90
19862;DHT22;10093;48.148;8.542;2022-07-10T04:18:39;10.40;99.90
19862;DHT22;10093;48.148;8.542;2022-07-10T04:21:05;10.40;99.90
19862;DHT22;10093;48.148;8.542;2022-07-10T04:23:32;10.60;99.90
19862;DHT22;10093;48.148;8.542;2022-07-10T04:25:58;10.70;99.90
19862;DHT22;10093;48.148;8.542;2022-07-10T04:28:24;10.90;99.90
19862;DHT22;10093;48.148;8.542;2022-07-10T04:30:50;11.10;99.90
19862;DHT22;10093;48.148;8.542;2022-07-10T04:33:15;11.10;99.90
19862;DHT22;10093;48.148;8.542;2022-07-10T04:35:41;11.20;99.90
19862;DHT22;10093;48.148;8.542;2022-07-10T04:38:06;11.20;99.90
19862;DHT22;10093;48.148;8.542;2022-07-10T04:40:32;11.30;99.90
19862;DHT22;10093;48.148;8.542;2022-07-10T04:42:58;11.50;99.90
19862;DHT22;10093;48.148;8.542;2022-07-10T04:45:23;11.50;99.90
19862;DHT22;10093;48.148;8.542;2022-07-10T04:47:49;11.60;99.90
19862;DHT22;10093;48.148;8.542;2022-07-10T04:50:14;11.50;99.90
19862;DHT22;10093;48.148;8.542;2022-07-10T04:52:40;11.60;99.90
19862;DHT22;10093;48.148;8.542;2022-07-10T04:55:06;11.80;99.90
19862;DHT22;10093;48.148;8.542;2022-07-10T04:57:32;12.00;99.90
19862;DHT22;10093;48.148;8.542;2022-07-10T04:59:57;12.10;99.90
19862;DHT22;10093;48.148;8.542;2022-07-10T05:02:23;12.30;99.90
19862;DHT22;10093;48.148;8.542;2022-07-10T05:04:49;12.50;99.90
19862;DHT22;10093;48.148;8.542;2022-07-10T05:07:15;12.40;99.90
19862;DHT22;10093;48.148;8.542;2022-07-10T05:09:41;12.60;99.90
19862;DHT22;10093;48.148;8.542;2022-07-10T05:12:06;12.50;99.90
19862;DHT22;10093;48.148;8.542;2022-07-10T05:14:32;12.60;99.90
19862;DHT22;10093;48.148;8.542;2022-07-10T05:16:58;13.00;99.90
19862;DHT22;10093;48.148;8.542;2022-07-10T05:19:24;13.30;99.90
19862;DHT22;10093;48.148;8.542;2022-07-10T05:21:49;13.50;99.90
19862;DHT22;10093;48.148;8.542;2022-07-10T05:24:15;13.70;99.90
19862;DHT22;10093;48.148;8.542;2022-07-10T05:26:41;13.80;99.90
19862;DHT22;10093;48.148;8.542;2022-07-10T05:29:07;13.60;99.90
19862;DHT22;10093;48.148;8.542;2022-07-10T05:31:32;13.70;99.90
19862;DHT22;10093;48.148;8.542;2022-07-10T05:33:58;13.50;99.90
19862;DHT22;10093;48.148;8.542;2022-07-10T05:36:24;13.80;99.90
19862;DHT22;10093;48.148;8.542;2022-07-10T05:38:50;14.00;99.90
19862;DHT22;10093;48.148;8.542;2022-07-10T05:41:15;14.10;99.90
19862;DHT22;10093;48.148;8.542;2022-07-10T05:43:41;14.30;99.90
19862;DHT22;10093;48.148;8.542;2022-07-10T05:46:06;14.30;99.90
19862;DHT22;10093;48.148;8.542;2022-07-10T05:48:32;14.40;99.90
19862;DHT22;10093;48.148;8.542;2022-07-10T05:50:58;14.60;99.90
19862;DHT22;10093;48.148;8.542;2022-07-10T05:53:24;15.10;99.90
19862;DHT22;10093;48.148;8.542;2022-07-10T05:55:50;15.70;99.90
19862;DHT22;10093;48.148;8.542;2022-07-10T05:58:16;16.20;99.90
19862;DHT22;10093;48.148;8.542;2022-07-10T06:00:43;16.60;99.90
19862;DHT22;10093;48.148;8.542;2022-07-10T06:03:09;17.10;99.90
19862;DHT22;10093;48.148;8.542;2022-07-10T06:05:36;17.10;99.90
19862;DHT22;10093;48.148;8.542;2022-07-10T06:08:02;17.20;99.90
19862;DHT22;10093;48.148;8.542;2022-07-10T06:10:28;17.20;99.90
19862;DHT22;10093;48.148;8.542;2022-07-10T06:12:53;17.50;99.90
19862;DHT22;10093;48.148;8.542;2022-07-10T06:15:19;17.80;99.90
19862;DHT22;10093;48.148;8.542;2022-07-10T06:17:45;17.80;99.90
19862;DHT22;10093;48.148;8.542;2022-07-10T06:20:11;18.00;99.90
19862;DHT22;10093;48.148;8.542;2022-07-10T06:22:36;16.60;99.90
19862;DHT22;10093;48.148;8.542;2022-07-10T06:25:07;16.30;99.90
19862;DHT22;10093;48.148;8.542;2022-07-10T06:27:33;16.20;99.90
19862;DHT22;10093;48.148;8.542;2022-07-10T06:30:00;16.30;99.90
19862;DHT22;10093;48.148;8.542;2022-07-10T06:32:26;16.30;99.90
19862;DHT22;10093;48.148;8.542;2022-07-10T06:34:53;16.00;99.90
19862;DHT22;10093;48.148;8.542;2022-07-10T06:37:19;16.10;99.90
19862;DHT22;10093;48.148;8.542;2022-07-10T06:39:45;15.60;99.90
19862;DHT22;10093;48.148;8.542;2022-07-10T06:42:12;15.50;99.90
19862;DHT22;10093;48.148;8.542;2022-07-10T06:44:38;15.70;99.90
19862;DHT22;10093;48.148;8.542;2022-07-10T06:47:04;15.70;99.90
19862;DHT22;10093;48.148;8.542;2022-07-10T06:49:48;15.50;99.90
19862;DHT22;10093;48.148;8.542;2022-07-10T06:52:15;15.30;99.90
19862;DHT22;10093;48.148;8.542;2022-07-10T06:54:41;15.40;99.90
19862;DHT22;10093;48.148;8.542;2022-07-10T06:57:07;15.90;99.90
19862;DHT22;10093;48.148;8.542;2022-07-10T06:59:33;16.00;99.90
19862;DHT22;10093;48.148;8.542;2022-07-10T07:01:59;16.40;99.90
19862;DHT22;10093;48.148;8.542;2022-07-10T07:04:25;16.80;99.90
19862;DHT22;10093;48.148;8.542;2022-07-10T07:06:50;17.40;99.90
19862;DHT22;10093;48.148;8.542;2022-07-10T07:09:16;18.20;99.90
19862;DHT22;10093;48.148;8.542;2022-07-10T07:11:41;17.70;99.90
19862;DHT22;10093;48.148;8.542;2022-07-10T07:14:07;17.40;99.90
19862;DHT22;10093;48.148;8.542;2022-07-10T07:16:32;17.60;99.90
19862;DHT22;10093;48.148;8.542;2022-07-10T07:19:07;18.10;99.90
19862;DHT22;10093;48.148;8.542;2022-07-10T07:21:33;18.40;99.90
19862;DHT22;10093;48.148;8.542;2022-07-10T07:24:18;18.50;99.90
19862;DHT22;10093;48.148;8.542;2022-07-10T07:26:47;18.50;99.90
19862;DHT22;10093;48.148;8.542;2022-07-10T07:29:14;18.50;99.90
19862;DHT22;10093;48.148;8.542;2022-07-10T07:31:40;18.70;99.90
19862;DHT22;10093;48.148;8.542;2022-07-10T07:34:05;18.80;99.90
19862;DHT22;10093;48.148;8.542;2022-07-10T07:36:31;19.40;99.90
19862;DHT22;10093;48.148;8.542;2022-07-10T07:38:57;19.30;99.90
19862;DHT22;10093;48.148;8.542;2022-07-10T07:41:23;20.20;99.90
19862;DHT22;10093;48.148;8.542;2022-07-10T07:43:49;22.90;99.90
19862;DHT22;10093;48.148;8.542;2022-07-10T07:46:15;22.50;99.90
19862;DHT22;10093;48.148;8.542;2022-07-10T07:48:40;24.00;99.90
19862;DHT22;10093;48.148;8.542;2022-07-10T07:51:06;22.90;99.90
19862;DHT22;10093;48.148;8.542;2022-07-10T07:53:32;22.30;99.90
19862;DHT22;10093;48.148;8.542;2022-07-10T07:55:57;20.60;99.90
19862;DHT22;10093;48.148;8.542;2022-07-10T07:58:23;19.70;99.90
19862;DHT22;10093;48.148;8.542;2022-07-10T08:00:49;19.40;99.90
19862;DHT22;10093;48.148;8.542;2022-07-10T08:03:14;20.60;99.90
19862;DHT22;10093;48.148;8.542;2022-07-10T08:05:41;23.30;99.90
19862;DHT22;10093;48.148;8.542;2022-07-10T08:08:06;25.70;99.90
19862;DHT22;10093;48.148;8.542;2022-07-10T08:10:34;27.00;99.90
19862;DHT22;10093;48.148;8.542;2022-07-10T08:13:00;27.10;99.90
19862;DHT22;10093;48.148;8.542;2022-07-10T08:15:26;27.50;99.90
19862;DHT22;10093;48.148;8.542;2022-07-10T08:17:54;27.80;99.90
19862;DHT22;10093;48.148;8.542;2022-07-10T08:20:20;25.70;99.90
19862;DHT22;10093;48.148;8.542;2022-07-10T08:22:47;22.30;99.90
19862;DHT22;10093;48.148;8.542;2022-07-10T08:25:14;21.90;99.90
19862;DHT22;10093;48.148;8.542;2022-07-10T08:27:40;21.80;99.90
19862;DHT22;10093;48.148;8.542;2022-07-10T08:30:07;23.60;99.90
19862;DHT22;10093;48.148;8.542;2022-07-10T08:32:34;26.20;99.90
19862;DHT22;10093;48.148;8.542;2022-07-10T08:35:00;28.20;99.90
19862;DHT22;10093;48.148;8.542;2022-07-10T08:37:26;26.70;99.90
19862;DHT22;10093;48.148;8.542;2022-07-10T08:39:52;22.80;99.90
19862;DHT22;10093;48.148;8.542;2022-07-10T08:42:18;19.90;99.90
19862;DHT22;10093;48.148;8.542;2022-07-10T08:44:44;19.20;99.90
19862;DHT22;10093;48.148;8.542;2022-07-10T08:47:10;21.00;99.90
19862;DHT22;10093;48.148;8.542;2022-07-10T08:49:46;23.60;99.90
19862;DHT22;10093;48.148;8.542;2022-07-10T08:52:23;25.70;99.90
19862;DHT22;10093;48.148;8.542;2022-07-10T08:54:48;24.60;99.90
19862;DHT22;10093;48.148;8.542;2022-07-10T08:57:15;22.80;99.90
19862;DHT22;10093;48.148;8.542;2022-07-10T08:59:42;23.20;99.90
19862;DHT22;10093;48.148;8.542;2022-07-10T09:02:08;24.40;99.90
19862;DHT22;10093;48.148;8.542;2022-07-10T09:04:34;26.40;99.90
19862;DHT22;10093;48.148;8.542;2022-07-10T09:06:59;24.50;99.90
19862;DHT22;10093;48.148;8.542;2022-07-10T09:09:25;24.80;99.90
19862;DHT22;10093;48.148;8.542;2022-07-10T09:11:56;24.90;99.90
19862;DHT22;10093;48.148;8.542;2022-07-10T09:14:22;25.30;99.90
19862;DHT22;10093;48.148;8.542;2022-07-10T09:16:50;24.90;99.90
19862;DHT22;10093;48.148;8.542;2022-07-10T09:19:21;25.10;99.90
19862;DHT22;10093;48.148;8.542;2022-07-10T09:24:19;24.70;99.90
19862;DHT22;10093;48.148;8.542;2022-07-10T09:27:03;23.60;99.90
19862;DHT22;10093;48.148;8.542;2022-07-10T09:29:44;23.80;99.90
19862;DHT22;10093;48.148;8.542;2022-07-10T09:32:11;25.80;99.90
19862;DHT22;10093;48.148;8.542;2022-07-10T09:34:45;25.90;99.90
19862;DHT22;10093;48.148;8.542;2022-07-10T09:39:54;25.80;99.90
19862;DHT22;10093;48.148;8.542;2022-07-10T09:42:40;24.40;99.90
19862;DHT22;10093;48.148;8.542;2022-07-10T09:50:04;25.30;99.90
19862;DHT22;10093;48.148;8.542;2022-07-10T09:52:42;22.10;99.90
19862;DHT22;10093;48.148;8.542;2022-07-10T09:55:08;22.30;99.90
19862;DHT22;10093;48.148;8.542;2022-07-10T09:57:34;23.60;99.90
19862;DHT22;10093;48.148;8.542;2022-07-10T10:00:00;25.10;99.90
19862;DHT22;10093;48.148;8.542;2022-07-10T10:02:26;27.40;99.90
19862;DHT22;10093;48.148;8.542;2022-07-10T10:04:51;24.70;99.90
19862;DHT22;10093;48.148;8.542;2022-07-10T10:07:18;25.10;99.90
19862;DHT22;10093;48.148;8.542;2022-07-10T10:09:54;26.30;99.90
19862;DHT22;10093;48.148;8.542;2022-07-10T10:12:51;25.40;99.90
19862;DHT22;10093;48.148;8.542;2022-07-10T10:15:19;26.20;99.90
19862;DHT22;10093;48.148;8.542;2022-07-10T10:17:45;27.00;99.90
19862;DHT22;10093;48.148;8.542;2022-07-10T10:20:11;26.70;99.90
19862;DHT22;10093;48.148;8.542;2022-07-10T10:22:56;26.80;99.90
19862;DHT22;10093;48.148;8.542;2022-07-10T10:25:26;25.70;99.90
19862;DHT22;10093;48.148;8.542;2022-07-10T10:27:53;25.50;99.90
19862;DHT22;10093;48.148;8.542;2022-07-10T10:30:19;27.00;99.90
19862;DHT22;10093;48.148;8.542;2022-07-10T10:32:45;26.00;99.90
19862;DHT22;10093;48.148;8.542;2022-07-10T10:35:11;26.90;99.90
19862;DHT22;10093;48.148;8.542;2022-07-10T10:37:56;28.00;99.90
19862;DHT22;10093;48.148;8.542;2022-07-10T10:40:32;27.80;99.90
19862;DHT22;10093;48.148;8.542;2022-07-10T10:42:58;28.40;99.90
19862;DHT22;10093;48.148;8.542;2022-07-10T10:45:41;27.40;99.90
19862;DHT22;10093;48.148;8.542;2022-07-10T10:50:37;26.50;99.90
19862;DHT22;10093;48.148;8.542;2022-07-10T10:53:04;27.90;99.90
19862;DHT22;10093;48.148;8.542;2022-07-10T10:55:30;29.20;99.90
19862;DHT22;10093;48.148;8.542;2022-07-10T10:58:14;27.90;99.90
19862;DHT22;10093;48.148;8.542;2022-07-10T11:00:41;26.60;99.90
19862;DHT22;10093;48.148;8.542;2022-07-10T11:03:14;26.50;99.90
19862;DHT22;10093;48.148;8.542;2022-07-10T11:05:41;25.70;99.90
19862;DHT22;10093;48.148;8.542;2022-07-10T11:08:07;26.30;99.90
19862;DHT22;10093;48.148;8.542;2022-07-10T11:10:43;24.40;99.90
19862;DHT22;10093;48.148;8.542;2022-07-10T11:13:10;23.10;99.90
19862;DHT22;10093;48.148;8.542;2022-07-10T11:15:49;25.20;99.90
19862;DHT22;10093;48.148;8.542;2022-07-10T11:18:18;25.30;99.90
19862;DHT22;10093;48.148;8.542;2022-07-10T11:20:48;26.20;99.90
19862;DHT22;10093;48.148;8.542;2022-07-10T11:25:53;24.10;99.90
19862;DHT22;10093;48.148;8.542;2022-07-10T11:28:51;24.60;99.90
19862;DHT22;10093;48.148;8.542;2022-07-10T11:31:22;27.00;99.90
19862;DHT22;10093;48.148;8.542;2022-07-10T11:33:53;26.00;99.90
19862;DHT22;10093;48.148;8.542;2022-07-10T11:38:47;26.00;99.90
19862;DHT22;10093;48.148;8.542;2022-07-10T11:41:15;25.00;99.90
19862;DHT22;10093;48.148;8.542;2022-07-10T11:44:12;25.00;99.90
19862;DHT22;10093;48.148;8.542;2022-07-10T11:46:38;23.70;99.90
19862;DHT22;10093;48.148;8.542;2022-07-10T11:49:05;24.00;99.90
19862;DHT22;10093;48.148;8.542;2022-07-10T11:51:33;23.60;99.90
19862;DHT22;10093;48.148;8.542;2022-07-10T11:54:03;23.00;99.90
19862;DHT22;10093;48.148;8.542;2022-07-10T11:56:37;23.60;99.90
19862;DHT22;10093;48.148;8.542;2022-07-10T11:59:08;24.50;99.90
19862;DHT22;10093;48.148;8.542;2022-07-10T12:01:54;25.10;99.90
19862;DHT22;10093;48.148;8.542;2022-07-10T12:04:24;24.10;99.90
19862;DHT22;10093;48.148;8.542;2022-07-10T12:06:52;23.80;99.90
19862;DHT22;10093;48.148;8.542;2022-07-10T12:09:20;24.30;99.90
19862;DHT22;10093;48.148;8.542;2022-07-10T12:12:01;24.80;99.90
19862;DHT22;10093;48.148;8.542;2022-07-10T12:14:27;23.80;99.90
19862;DHT22;10093;48.148;8.542;2022-07-10T12:16:54;23.80;99.90
19862;DHT22;10093;48.148;8.542;2022-07-10T12:19:31;24.20;99.90
19862;DHT22;10093;48.148;8.542;2022-07-10T12:22:01;23.90;99.90
19862;DHT22;10093;48.148;8.542;2022-07-10T12:24:27;23.50;99.90
19862;DHT22;10093;48.148;8.542;2022-07-10T12:26:53;23.10;99.90
19862;DHT22;10093;48.148;8.542;2022-07-10T12:29:26;22.90;99.90
19862;DHT22;10093;48.148;8.542;2022-07-10T12:31:54;24.00;99.90
19862;DHT22;10093;48.148;8.542;2022-07-10T12:34:36;25.10;99.90
19862;DHT22;10093;48.148;8.542;2022-07-10T12:37:09;26.30;99.90
19862;DHT22;10093;48.148;8.542;2022-07-10T12:39:50;24.70;99.90
19862;DHT22;10093;48.148;8.542;2022-07-10T12:42:31;25.90;99.90
19862;DHT22;10093;48.148;8.542;2022-07-10T12:45:13;26.30;99.90
19862;DHT22;10093;48.148;8.542;2022-07-10T12:47:48;25.10;99.90
19862;DHT22;10093;48.148;8.542;2022-07-10T12:50:16;26.10;99.90
19862;DHT22;10093;48.148;8.542;2022-07-10T12:52:46;26.10;99.90
19862;DHT22;10093;48.148;8.542;2022-07-10T12:55:12;26.10;99.90
19862;DHT22;10093;48.148;8.542;2022-07-10T12:57:57;26.70;99.90
19862;DHT22;10093;48.148;8.542;2022-07-10T13:00:28;27.60;99.90
19862;DHT22;10093;48.148;8.542;2022-07-10T13:05:34;26.50;99.90
19862;DHT22;10093;48.148;8.542;2022-07-10T13:08:20;26.30;99.90
19862;DHT22;10093;48.148;8.542;2022-07-10T13:10:57;23.90;99.90
19862;DHT22;10093;48.148;8.542;2022-07-10T13:13:26;21.80;99.90
19862;DHT22;10093;48.148;8.542;2022-07-10T13:15:52;22.10;99.90
19862;DHT22;10093;48.148;8.542;2022-07-10T13:18:24;22.70;99.90
19862;DHT22;10093;48.148;8.542;2022-07-10T13:20:51;23.10;99.90
19862;DHT22;10093;48.148;8.542;2022-07-10T13:23:18;23.10;99.90
19862;DHT22;10093;48.148;8.542;2022-07-10T13:25:53;22.90;99.90
19862;DHT22;10093;48.148;8.542;2022-07-10T13:28:20;21.70;99.90
19862;DHT22;10093;48.148;8.542;2022-07-10T13:30:46;22.40;99.90
19862;DHT22;10093;48.148;8.542;2022-07-10T13:33:12;22.90;99.90
19862;DHT22;10093;48.148;8.542;2022-07-10T13:35:37;23.60;99.90
19862;DHT22;10093;48.148;8.542;2022-07-10T13:38:04;22.50;99.90
19862;DHT22;10093;48.148;8.542;2022-07-10T13:40:31;21.70;99.90
19862;DHT22;10093;48.148;8.542;2022-07-10T13:42:58;21.90;99.90
19862;DHT22;10093;48.148;8.542;2022-07-10T13:45:24;22.10;99.90
19862;DHT22;10093;48.148;8.542;2022-07-10T13:47:58;22.70;99.90
19862;DHT22;10093;48.148;8.542;2022-07-10T13:50:24;22.90;99.90
19862;DHT22;10093;48.148;8.542;2022-07-10T13:52:50;21.80;99.90
19862;DHT22;10093;48.148;8.542;2022-07-10T13:55:16;21.90;99.90
19862;DHT22;10093;48.148;8.542;2022-07-10T13:57:41;21.90;99.90
19862;DHT22;10093;48.148;8.542;2022-07-10T14:00:08;22.00;99.90
19862;DHT22;10093;48.148;8.542;2022-07-10T14:02:33;21.80;99.90
19862;DHT22;10093;48.148;8.542;2022-07-10T14:05:00;20.90;99.90
19862;DHT22;10093;48.148;8.542;2022-07-10T14:07:25;20.80;99.90
19862;DHT22;10093;48.148;8.542;2022-07-10T14:09:51;21.60;99.90
19862;DHT22;10093;48.148;8.542;2022-07-10T14:12:17;22.50;99.90
19862;DHT22;10093;48.148;8.542;2022-07-10T14:14:42;22.70;99.90
19862;DHT22;10093;48.148;8.542;2022-07-10T14:17:08;22.80;99.90
19862;DHT22;10093;48.148;8.542;2022-07-10T14:19:34;21.80;99.90
19862;DHT22;10093;48.148;8.542;2022-07-10T14:21:59;21.90;99.90
19862;DHT22;10093;48.148;8.542;2022-07-10T14:24:25;21.30;99.90
19862;DHT22;10093;48.148;8.542;2022-07-10T14:26:51;21.10;99.90
19862;DHT22;10093;48.148;8.542;2022-07-10T14:29:18;20.30;99.90
19862;DHT22;10093;48.148;8.542;2022-07-10T14:31:44;20.20;99.90
19862;DHT22;10093;48.148;8.542;2022-07-10T14:34:13;20.30;99.90
19862;DHT22;10093;48.148;8.542;2022-07-10T14:36:39;21.00;99.90
19862;DHT22;10093;48.148;8.542;2022-07-10T14:39:04;21.30;99.90
19862;DHT22;10093;48.148;8.542;2022-07-10T14:41:30;21.20;99.90
19862;DHT22;10093;48.148;8.542;2022-07-10T14:43:56;21.10;99.90
19862;DHT22;10093;48.148;8.542;2022-07-10T14:46:21;21.40;99.90
19862;DHT22;10093;48.148;8.542;2022-07-10T14:48:47;21.30;99.90
19862;DHT22;10093;48.148;8.542;2022-07-10T14:51:13;21.10;99.90
19862;DHT22;10093;48.148;8.542;2022-07-10T14:53:39;20.60;99.90
19862;DHT22;10093;48.148;8.542;2022-07-10T14:56:07;20.50;99.90
19862;DHT22;10093;48.148;8.542;2022-07-10T14:58:33;20.60;99.90
19862;DHT22;10093;48.148;8.542;2022-07-10T15:00:58;21.10;99.90
19862;DHT22;10093;48.148;8.542;2022-07-10T15:03:24;21.00;99.90
19862;DHT22;10093;48.148;8.542;2022-07-10T15:05:50;21.10;99.90
19862;DHT22;10093;48.148;8.542;2022-07-10T15:08:22;20.90;99.90
19862;DHT22;10093;48.148;8.542;2022-07-10T15:10:48;20.80;99.90
19862;DHT22;10093;48.148;8.542;2022-07-10T15:13:14;20.50;99.90
19862;DHT22;10093;48.148;8.542;2022-07-10T15:15:40;20.20;99.90
19862;DHT22;10093;48.148;8.542;2022-07-10T15:18:06;19.90;99.90
19862;DHT22;10093;48.148;8.542;2022-07-10T15:20:32;19.70;99.90
19862;DHT22;10093;48.148;8.542;2022-07-10T15:22:58;19.80;99.90
19862;DHT22;10093;48.148;8.542;2022-07-10T15:25:23;19.50;99.90
19862;DHT22;10093;48.148;8.542;2022-07-10T15:27:50;19.80;99.90
19862;DHT22;10093;48.148;8.542;2022-07-10T15:30:16;19.70;99.90
19862;DHT22;10093;48.148;8.542;2022-07-10T15:32:42;20.00;99.90
19862;DHT22;10093;48.148;8.542;2022-07-10T15:35:08;20.20;99.90
19862;DHT22;10093;48.148;8.542;2022-07-10T15:37:34;20.60;99.90
19862;DHT22;10093;48.148;8.542;2022-07-10T15:40:00;20.40;99.90
19862;DHT22;10093;48.148;8.542;2022-07-10T15:42:25;20.70;99.90
19862;DHT22;10093;48.148;8.542;2022-07-10T15:44:51;20.60;99.90
19862;DHT22;10093;48.148;8.542;2022-07-10T15:47:17;20.60;99.90
19862;DHT22;10093;48.148;8.542;2022-07-10T15:49:42;20.50;99.90
19862;DHT22;10093;48.148;8.542;2022-07-10T15:52:08;20.50;99.90